Главная страница
METAR-TAF:

METAR-TAF

Аэропорты :

Фунафути, Тувалу

широта: 08-31S, долгота: 179-13E, высота над уровнем моря: 1 м

Текущие метеонаблюдения

Эта сводка был подготовлена 40 минут назад, в 20:00 UTC
Ветер 3 Узел от юго-восточный
Температура 29°C
Влажность 79%
Давление 1012 hPa
Видимость 10 км и более
небольшая облачность на высоте 2000 фута
Рассеянная облачность на высоте 31000 фута

METAR: NGFU 242000Z 14003KT 9999 FEW020 BKN310 29/25 Q1012

Время: 08:40 (20:40 UTC)

Прогноз

Эта сводка был подготовлена 3 часа и 28 минут назад, в 17:12 UTC
Прогноз действительный с 24-го 18 UTC до 25-го 18 UTC
Ветер 8 Узел от восточно-северо-восточный
Видимость 10 км и более
Отдельные облака на высоте 1700 фута
Рассеянная облачность на высоте 10000 фута

TAF: NGFU 241712Z 2418/2518 07008KT 9999 SCT017 BKN100

Метеонаблюдения и прогнозы для более 4000 аэропортов (сводки METAR и TAF).

Имеющиеся станции представлены на карте желтыми и красными точками.

Чтобы увидеть название станции, наведите на нее мышь.

Затем щелкните, чтобы увидеть метеонаблюдения и метеопрогнозы.

Управление картой: чтобы увеличить масштаб, щелкните зеленые кнопки с черным крестиком; чтобы уменьшить масштаб, щелкните зеленую кнопку с тире; для просмотра соседних карт щелкайте зеленые стрелки.


METAR-TAF: